Time;durP1;ratioP1;P1;durP2;ratioP2;P2;SDS_P1;SDS_P2;PMS_P1;PMS_P2;Temp;Humidity;BMP_temperature;BMP_pressure;BME280_temperature;BME280_humidity;BME280_pressure;Samples;Min_cycle;Max_cycle;Signal;HPM_P1;HPM_P2
2024/01/29 00:01:50;;;;;;;15.53;14.03;;;2.10;99.90;;;;;;6163267;23;20376;-75
2024/01/29 00:04:18;;;;;;;13.47;12.13;;;2.20;99.90;;;;;;6160474;23;20427;-76
2024/01/29 00:06:46;;;;;;;18.10;12.40;;;2.10;99.90;;;;;;6160193;23;20451;-77
2024/01/29 00:09:17;;;;;;;13.17;11.80;;;2.10;99.90;;;;;;6160037;23;20412;-75
2024/01/29 00:11:52;;;;;;;14.10;12.80;;;2.00;99.90;;;;;;6159236;23;20819;-77
2024/01/29 00:14:22;;;;;;;13.70;12.40;;;2.10;99.90;;;;;;6158384;23;20946;-76
2024/01/29 00:16:50;;;;;;;14.33;13.03;;;2.20;99.90;;;;;;6159365;23;20411;-77
2024/01/29 00:19:18;;;;;;;13.03;11.63;;;1.90;99.90;;;;;;6158083;23;20437;-76
2024/01/29 00:21:47;;;;;;;13.93;12.50;;;2.00;99.90;;;;;;6157741;23;20415;-78
2024/01/29 00:24:18;;;;;;;15.17;12.50;;;1.70;99.90;;;;;;6158644;23;20432;-75
2024/01/29 00:26:47;;;;;;;15.30;13.10;;;1.90;99.90;;;;;;6158289;23;20426;-76
2024/01/29 00:29:18;;;;;;;14.33;13.00;;;2.20;99.90;;;;;;6157758;23;20411;-76
2024/01/29 00:31:45;;;;;;;15.93;12.70;;;1.90;99.90;;;;;;6157876;23;20898;-77
2024/01/29 00:34:17;;;;;;;13.70;12.30;;;1.90;99.90;;;;;;6156940;23;20450;-75
2024/01/29 00:36:49;;;;;;;15.20;13.63;;;1.90;99.90;;;;;;6157315;23;20391;-78
2024/01/29 00:39:20;;;;;;;15.20;13.60;;;2.10;99.90;;;;;;6157354;23;20470;-77
2024/01/29 00:41:50;;;;;;;15.10;13.40;;;1.90;99.90;;;;;;6157568;23;20462;-76
2024/01/29 00:44:23;;;;;;;14.10;12.60;;;1.90;99.90;;;;;;6157529;23;20930;-78
2024/01/29 00:46:55;;;;;;;14.97;13.53;;;1.80;99.90;;;;;;6159728;23;20420;-76
2024/01/29 00:49:23;;;;;;;15.30;13.20;;;2.00;99.90;;;;;;6160110;23;20716;-76
2024/01/29 00:51:51;;;;;;;13.90;12.60;;;1.80;99.90;;;;;;6158527;23;20498;-78
2024/01/29 00:54:30;;;;;;;14.90;13.30;;;1.70;99.90;;;;;;6159129;23;20471;-76
2024/01/29 00:56:58;;;;;;;14.87;13.37;;;2.00;99.90;;;;;;6161938;23;20500;-76
2024/01/29 00:59:28;;;;;;;15.83;14.17;;;1.70;99.90;;;;;;6161864;23;20416;-77
2024/01/29 01:02:00;;;;;;;18.73;13.17;;;2.00;99.90;;;;;;6163086;23;20440;-76
2024/01/29 01:04:28;;;;;;;15.40;13.47;;;1.80;99.90;;;;;;6160719;23;20458;-77
2024/01/29 01:07:03;;;;;;;17.17;15.37;;;1.80;99.90;;;;;;6162165;23;20490;-76
2024/01/29 01:09:36;;;;;;;16.30;13.10;;;1.70;99.90;;;;;;6161676;23;20414;-76
2024/01/29 01:12:09;;;;;;;14.90;13.33;;;1.90;99.90;;;;;;6162175;23;20432;-77
2024/01/29 01:14:43;;;;;;;15.30;13.70;;;1.70;99.90;;;;;;6161396;23;20455;-76
2024/01/29 01:17:16;;;;;;;14.67;13.03;;;1.70;99.90;;;;;;6162727;23;20437;-75
2024/01/29 01:19:56;;;;;;;16.70;14.43;;;1.70;99.90;;;;;;6163590;23;20435;-75
2024/01/29 01:22:32;;;;;;;17.23;14.10;;;1.70;99.90;;;;;;6162890;23;20411;-77
2024/01/29 01:25:21;;;;;;;17.27;14.83;;;2.00;99.90;;;;;;6161925;23;20712;-76
2024/01/29 01:27:53;;;;;;;18.37;14.70;;;1.70;99.90;;;;;;6161326;23;20497;-77
2024/01/29 01:30:25;;;;;;;15.17;13.10;;;1.70;99.90;;;;;;6166177;23;20411;-76
2024/01/29 01:32:58;;;;;;;16.17;14.47;;;1.30;99.90;;;;;;6162603;23;20510;-76
2024/01/29 01:35:31;;;;;;;15.10;13.60;;;1.60;99.90;;;;;;6162429;23;20760;-77
2024/01/29 01:38:04;;;;;;;16.93;14.60;;;1.60;99.90;;;;;;6161414;23;20439;-77
2024/01/29 01:40:37;;;;;;;15.47;13.87;;;1.60;99.90;;;;;;6160873;23;20470;-76
2024/01/29 01:43:22;;;;;;;16.20;14.60;;;1.50;99.90;;;;;;6158087;23;20508;-76
2024/01/29 01:46:13;;;;;;;16.87;14.70;;;1.50;99.90;;;;;;6158337;23;20783;-77
2024/01/29 01:48:41;;;;;;;16.87;15.27;;;1.50;99.90;;;;;;6157004;23;20414;-76
2024/01/29 01:51:13;;;;;;;16.33;14.73;;;1.50;99.90;;;;;;6157003;23;20391;-76
2024/01/29 01:53:47;;;;;;;16.87;14.93;;;1.50;99.90;;;;;;6156915;23;20479;-78
2024/01/29 01:56:22;;;;;;;16.13;14.53;;;1.50;99.90;;;;;;6156305;23;20438;-76
2024/01/29 01:58:53;;;;;;;19.47;15.47;;;1.90;99.90;;;;;;6156500;23;20438;-76
2024/01/29 02:01:25;;;;;;;16.47;13.57;;;1.50;99.90;;;;;;6156158;23;20506;-77
2024/01/29 02:03:56;;;;;;;16.87;14.87;;;1.50;99.90;;;;;;6156016;23;20435;-75
2024/01/29 02:06:27;;;;;;;16.37;14.67;;;1.50;99.90;;;;;;6156070;23;20417;-77
2024/01/29 02:09:01;;;;;;;16.00;14.30;;;1.50;99.90;;;;;;6156937;23;20899;-76
2024/01/29 02:11:38;;;;;;;16.67;14.97;;;1.80;99.90;;;;;;6157538;23;20415;-76
2024/01/29 02:14:09;;;;;;;16.47;14.67;;;1.50;99.90;;;;;;6160201;23;20439;-76
2024/01/29 02:16:37;;;;;;;15.90;14.20;;;1.50;99.90;;;;;;6161931;23;20413;-77
2024/01/29 02:19:18;;;;;;;16.03;14.33;;;1.50;99.90;;;;;;6160841;23;20416;-76
2024/01/29 02:21:57;;;;;;;16.70;15.00;;;1.50;99.90;;;;;;6160582;23;20411;-76
2024/01/29 02:24:29;;;;;;;16.63;14.87;;;1.50;99.90;;;;;;6161616;23;20439;-76
2024/01/29 02:27:06;;;;;;;17.70;15.37;;;1.50;99.90;;;;;;6161757;23;20446;-76
2024/01/29 02:29:37;;;;;;;17.60;14.23;;;1.40;99.90;;;;;;6161044;23;20932;-75
2024/01/29 02:32:14;;;;;;;19.77;15.27;;;1.40;99.90;;;;;;6161521;23;20415;-76
2024/01/29 02:34:42;;;;;;;19.97;15.63;;;1.40;99.90;;;;;;6161768;23;20463;-76
2024/01/29 02:37:14;;;;;;;17.73;15.77;;;1.50;99.90;;;;;;6159776;23;20431;-80
2024/01/29 02:39:50;;;;;;;16.43;14.70;;;1.10;99.90;;;;;;6160633;23;20410;-77
2024/01/29 02:42:34;;;;;;;17.10;15.30;;;1.40;99.90;;;;;;6161227;23;20441;-77
2024/01/29 02:45:12;;;;;;;16.90;15.23;;;1.40;99.90;;;;;;6163953;23;20390;-77
2024/01/29 02:47:46;;;;;;;17.83;15.97;;;1.40;99.90;;;;;;6166064;23;20414;-79
2024/01/29 02:50:19;;;;;;;17.67;15.93;;;1.00;99.90;;;;;;6168369;23;20447;-75
2024/01/29 02:52:53;;;;;;;16.40;14.80;;;1.40;99.90;;;;;;6168643;23;20441;-76
2024/01/29 02:55:31;;;;;;;18.80;16.67;;;1.30;99.90;;;;;;6170710;23;20440;-76
2024/01/29 02:58:08;;;;;;;17.50;15.40;;;1.30;99.90;;;;;;6173367;23;20405;-78
2024/01/29 03:00:41;;;;;;;17.13;15.43;;;1.30;99.90;;;;;;6172922;23;20403;-79
2024/01/29 03:03:13;;;;;;;17.90;15.93;;;1.30;99.90;;;;;;6167699;23;20456;-77
2024/01/29 03:05:48;;;;;;;17.10;15.30;;;1.50;99.90;;;;;;6162746;23;20415;-76
2024/01/29 03:08:26;;;;;;;17.93;15.83;;;1.30;99.90;;;;;;6161233;23;20421;-76
2024/01/29 03:13:46;;;;;;;16.43;14.63;;;1.10;99.90;;;;;;6156940;23;20429;-76
2024/01/29 03:16:18;;;;;;;18.30;16.50;;;1.20;99.90;;;;;;6159612;23;20438;-77
2024/01/29 03:18:57;;;;;;;18.20;16.30;;;1.20;99.90;;;;;;6158616;23;20411;-77
2024/01/29 03:21:27;;;;;;;17.17;15.53;;;1.20;99.90;;;;;;6160026;23;20437;-76
2024/01/29 03:23:55;;;;;;;17.07;15.10;;;1.20;99.90;;;;;;6160940;23;20445;-76
2024/01/29 03:26:28;;;;;;;16.10;14.23;;;1.20;99.90;;;;;;6160062;23;20418;-77
2024/01/29 03:28:57;;;;;;;16.20;14.57;;;1.20;99.90;;;;;;6160072;23;20906;-76
2024/01/29 03:31:27;;;;;;;16.73;14.90;;;1.30;99.90;;;;;;6160747;23;20421;-76
2024/01/29 03:33:56;;;;;;;17.50;15.53;;;1.20;99.90;;;;;;6159877;23;20453;-77
2024/01/29 03:36:24;;;;;;;16.87;14.47;;;1.50;99.90;;;;;;6158823;23;20442;-76
2024/01/29 03:39:05;;;;;;;15.80;14.20;;;1.40;99.90;;;;;;6159420;23;20420;-76
2024/01/29 03:41:35;;;;;;;15.23;13.60;;;1.10;99.90;;;;;;6161485;23;20419;-78
2024/01/29 03:44:04;;;;;;;18.80;14.60;;;1.30;99.90;;;;;;6162332;23;20469;-77
2024/01/29 03:46:36;;;;;;;15.20;13.80;;;1.10;99.90;;;;;;6162701;23;20461;-76
2024/01/29 03:49:07;;;;;;;14.87;13.40;;;1.30;99.90;;;;;;6160944;23;20414;-76
2024/01/29 03:51:35;;;;;;;14.90;13.50;;;1.10;99.90;;;;;;6161029;23;20484;-78
2024/01/29 03:54:03;;;;;;;16.27;14.57;;;0.90;99.90;;;;;;6160592;23;20517;-78
2024/01/29 03:56:43;;;;;;;14.90;13.33;;;1.00;99.90;;;;;;6162220;23;20492;-78
2024/01/29 03:59:19;;;;;;;14.93;13.47;;;1.30;99.90;;;;;;6161168;23;20907;-78
2024/01/29 04:01:51;;;;;;;14.77;13.30;;;1.00;99.90;;;;;;6161095;23;20430;-75
2024/01/29 04:04:20;;;;;;;13.40;12.00;;;1.00;99.90;;;;;;6160493;23;20434;-79
2024/01/29 04:06:48;;;;;;;15.77;13.20;;;1.00;99.90;;;;;;6160906;23;20408;-76
2024/01/29 04:09:21;;;;;;;15.47;13.97;;;1.20;99.90;;;;;;6160983;23;20502;-76
2024/01/29 04:11:52;;;;;;;15.27;13.67;;;0.80;99.90;;;;;;6162507;23;20421;-76
2024/01/29 04:14:28;;;;;;;13.90;12.50;;;0.60;99.90;;;;;;6162066;23;20526;-77
2024/01/29 04:16:57;;;;;;;14.43;13.03;;;1.20;99.90;;;;;;6162154;23;20505;-78
2024/01/29 04:19:28;;;;;;;14.70;13.20;;;0.90;99.90;;;;;;6162148;23;20440;-76
2024/01/29 04:21:57;;;;;;;14.70;13.27;;;0.90;99.90;;;;;;6163374;23;20441;-75
2024/01/29 04:24:32;;;;;;;14.63;13.20;;;0.90;99.90;;;;;;6162232;23;20442;-75
2024/01/29 04:27:06;;;;;;;15.60;14.03;;;0.90;99.90;;;;;;6161782;23;20771;-77
2024/01/29 04:29:48;;;;;;;14.07;12.57;;;0.90;99.90;;;;;;6161512;23;20883;-77
2024/01/29 04:32:22;;;;;;;17.80;13.13;;;0.90;99.90;;;;;;6160733;23;20415;-76
2024/01/29 04:34:53;;;;;;;15.00;13.60;;;0.90;99.90;;;;;;6160635;23;20418;-77
2024/01/29 04:37:25;;;;;;;16.20;12.73;;;1.10;99.90;;;;;;6160469;23;20406;-75
2024/01/29 04:40:04;;;;;;;14.80;13.30;;;0.50;99.90;;;;;;6160054;23;20585;-76
2024/01/29 04:42:41;;;;;;;21.80;19.57;;;1.00;99.90;;;;;;6160512;23;20439;-76
2024/01/29 04:45:12;;;;;;;20.57;17.43;;;0.80;99.90;;;;;;6162352;23;20375;-77
2024/01/29 04:47:45;;;;;;;21.80;18.33;;;0.80;99.90;;;;;;6162230;23;20420;-76
2024/01/29 04:50:16;;;;;;;18.63;15.93;;;0.80;99.90;;;;;;6163395;23;20732;-77
2024/01/29 04:52:48;;;;;;;15.53;13.93;;;0.80;99.90;;;;;;6162131;23;20470;-77
2024/01/29 04:55:16;;;;;;;15.70;13.90;;;0.80;99.90;;;;;;6163857;23;20421;-76
2024/01/29 04:57:49;;;;;;;14.33;12.83;;;0.80;99.90;;;;;;6162326;23;20648;-76
2024/01/29 05:00:25;;;;;;;15.93;14.00;;;0.80;99.90;;;;;;6163439;23;20462;-78
2024/01/29 05:02:56;;;;;;;15.13;13.67;;;0.40;99.90;;;;;;6162874;23;20471;-78
2024/01/29 05:05:30;;;;;;;15.13;13.53;;;0.80;99.90;;;;;;6163375;23;20747;-78
2024/01/29 05:08:02;;;;;;;17.53;15.60;;;0.80;99.90;;;;;;6164338;23;20406;-78
2024/01/29 05:10:37;;;;;;;18.73;16.50;;;0.80;99.90;;;;;;6165072;23;20418;-78
2024/01/29 05:13:16;;;;;;;27.90;22.87;;;0.60;99.90;;;;;;6162860;23;20434;-76
2024/01/29 05:15:49;;;;;;;21.83;19.60;;;0.80;99.90;;;;;;6161305;23;20438;-78
2024/01/29 05:18:22;;;;;;;18.60;16.70;;;0.80;99.90;;;;;;6159062;23;20421;-78
2024/01/29 05:20:53;;;;;;;16.83;15.23;;;0.80;99.90;;;;;;6160323;23;20435;-76
2024/01/29 05:23:25;;;;;;;17.10;14.07;;;1.10;99.90;;;;;;6159482;23;20458;-76
2024/01/29 05:25:53;;;;;;;15.73;14.13;;;0.80;99.90;;;;;;6159814;23;20466;-76
2024/01/29 05:28:29;;;;;;;19.13;14.00;;;0.90;99.90;;;;;;6159327;23;20490;-79
2024/01/29 05:31:09;;;;;;;14.87;13.37;;;0.80;99.90;;;;;;6159790;23;20440;-76
2024/01/29 05:33:45;;;;;;;15.73;14.13;;;1.00;99.90;;;;;;6159268;23;20433;-77
2024/01/29 05:36:22;;;;;;;15.27;13.73;;;0.80;99.90;;;;;;6160427;23;20437;-76
2024/01/29 05:38:54;;;;;;;33.10;27.00;;;0.80;99.90;;;;;;6160967;23;20414;-77
2024/01/29 05:41:26;;;;;;;19.37;16.67;;;0.80;99.90;;;;;;6159357;23;20438;-75
2024/01/29 05:43:57;;;;;;;19.03;15.67;;;0.80;99.90;;;;;;6158941;23;20436;-76
2024/01/29 05:46:41;;;;;;;15.63;14.03;;;0.80;99.90;;;;;;6159854;23;20410;-76
2024/01/29 05:49:26;;;;;;;15.87;14.17;;;1.10;99.90;;;;;;6158667;23;20442;-76
2024/01/29 05:51:58;;;;;;;15.43;13.83;;;0.90;99.90;;;;;;6158618;23;20420;-78
2024/01/29 05:54:29;;;;;;;14.93;13.50;;;0.90;99.90;;;;;;6159478;23;20434;-77
2024/01/29 05:57:01;;;;;;;15.63;14.00;;;0.90;99.90;;;;;;6158788;23;20466;-77
2024/01/29 05:59:33;;;;;;;20.13;14.17;;;0.90;99.90;;;;;;6158823;23;20468;-77
2024/01/29 06:02:04;;;;;;;17.93;14.30;;;0.90;99.90;;;;;;6158522;23;20429;-77
2024/01/29 06:04:31;;;;;;;14.33;12.83;;;0.90;99.90;;;;;;6157483;23;20462;-78
2024/01/29 06:06:59;;;;;;;14.30;12.90;;;0.90;99.90;;;;;;6158515;23;20487;-77
2024/01/29 06:09:35;;;;;;;18.73;13.87;;;1.10;99.90;;;;;;6157988;23;20411;-76
2024/01/29 06:12:05;;;;;;;17.00;14.27;;;0.50;99.90;;;;;;6159862;23;20414;-76
2024/01/29 06:14:34;;;;;;;15.40;13.60;;;0.90;99.90;;;;;;6161984;23;20434;-78
2024/01/29 06:17:01;;;;;;;14.63;13.20;;;0.90;99.90;;;;;;6160498;23;20442;-78
2024/01/29 06:19:30;;;;;;;19.50;13.60;;;1.00;99.90;;;;;;6159537;23;20404;-78
2024/01/29 06:21:57;;;;;;;16.67;13.70;;;1.00;99.90;;;;;;6162957;23;20915;-77
2024/01/29 06:24:24;;;;;;;15.57;13.87;;;0.90;99.90;;;;;;6163194;23;20432;-77
2024/01/29 06:26:56;;;;;;;15.80;13.80;;;0.90;99.90;;;;;;6168760;23;20416;-78
2024/01/29 06:29:28;;;;;;;20.23;17.00;;;0.90;99.90;;;;;;6168831;23;20375;-79
2024/01/29 06:32:01;;;;;;;17.13;15.40;;;1.30;99.90;;;;;;6166562;23;20369;-77
2024/01/29 06:34:33;;;;;;;16.37;14.70;;;1.20;99.90;;;;;;6166152;23;20429;-77
2024/01/29 06:37:01;;;;;;;15.70;14.20;;;1.50;99.90;;;;;;6164465;23;20975;-79
2024/01/29 06:39:35;;;;;;;15.20;13.70;;;1.70;99.90;;;;;;6162498;23;20514;-78
2024/01/29 06:42:03;;;;;;;15.57;13.70;;;1.80;99.90;;;;;;6163427;23;20426;-78
2024/01/29 06:44:34;;;;;;;14.87;13.47;;;1.60;99.90;;;;;;6162824;23;20445;-78
2024/01/29 06:47:03;;;;;;;14.87;13.30;;;1.90;99.90;;;;;;6166003;23;20441;-81
2024/01/29 06:49:38;;;;;;;14.17;12.70;;;1.90;99.90;;;;;;6165711;23;20403;-78
2024/01/29 06:52:05;;;;;;;16.07;14.00;;;2.20;99.90;;;;;;6166214;23;20397;-79
2024/01/29 06:54:33;;;;;;;15.00;12.90;;;2.00;99.90;;;;;;6168013;23;20968;-78
2024/01/29 06:57:01;;;;;;;13.50;12.10;;;1.70;99.90;;;;;;6165339;23;20431;-79
2024/01/29 06:59:31;;;;;;;14.63;12.60;;;1.50;99.90;;;;;;6164830;23;20410;-79
2024/01/29 07:02:00;;;;;;;14.60;12.70;;;1.40;99.90;;;;;;6169465;23;20420;-78
2024/01/29 07:04:30;;;;;;;14.07;12.73;;;1.30;99.90;;;;;;6168450;23;20441;-80
2024/01/29 07:07:06;;;;;;;15.33;13.80;;;1.30;99.90;;;;;;6163634;23;20406;-78
2024/01/29 07:09:33;;;;;;;15.40;13.20;;;1.30;99.90;;;;;;6161649;23;20839;-77
2024/01/29 07:12:04;;;;;;;16.17;13.10;;;1.00;99.90;;;;;;6160452;23;20410;-80
2024/01/29 07:14:32;;;;;;;14.83;13.00;;;1.30;99.90;;;;;;6168004;23;20892;-78
2024/01/29 07:16:59;;;;;;;14.47;13.03;;;1.50;99.90;;;;;;6166145;23;20439;-78
2024/01/29 07:19:36;;;;;;;14.97;12.70;;;1.30;99.90;;;;;;6162623;23;20406;-79
2024/01/29 07:22:04;;;;;;;15.40;13.97;;;1.30;99.90;;;;;;6160543;23;20380;-78
2024/01/29 07:24:38;;;;;;;16.27;14.60;;;1.40;99.90;;;;;;6160543;23;20427;-78
2024/01/29 07:27:08;;;;;;;15.73;13.70;;;1.40;99.90;;;;;;6161447;23;20473;-78
2024/01/29 07:29:39;;;;;;;16.40;14.70;;;1.40;99.90;;;;;;6160484;23;20433;-79
2024/01/29 07:32:10;;;;;;;15.93;14.43;;;1.40;99.90;;;;;;6161329;23;20444;-81
2024/01/29 07:34:39;;;;;;;14.47;13.03;;;1.40;99.90;;;;;;6162771;23;20481;-78
2024/01/29 07:37:13;;;;;;;13.90;12.47;;;1.10;99.90;;;;;;6159554;23;20845;-78
2024/01/29 07:39:43;;;;;;;13.87;12.10;;;1.40;99.90;;;;;;6160746;23;20470;-78
2024/01/29 07:42:17;;;;;;;16.00;13.13;;;1.70;99.90;;;;;;6160291;23;20468;-78
2024/01/29 07:44:56;;;;;;;15.70;13.03;;;1.50;99.90;;;;;;6159302;23;20410;-77
2024/01/29 07:47:26;;;;;;;14.33;12.37;;;1.20;99.90;;;;;;6157791;23;20414;-77
2024/01/29 07:50:02;;;;;;;14.40;12.93;;;1.70;99.90;;;;;;6158681;23;20528;-78
2024/01/29 07:52:34;;;;;;;14.37;12.87;;;1.90;99.90;;;;;;6161395;23;20411;-79
2024/01/29 07:55:05;;;;;;;13.30;12.00;;;1.70;99.90;;;;;;6161159;23;20398;-77
2024/01/29 07:57:39;;;;;;;14.30;12.80;;;1.70;99.90;;;;;;6158200;23;20534;-78
2024/01/29 08:00:08;;;;;;;14.37;13.00;;;1.80;99.90;;;;;;6158553;23;20415;-77
2024/01/29 08:02:38;;;;;;;14.10;12.80;;;2.00;99.90;;;;;;6158915;23;20434;-77
2024/01/29 08:05:11;;;;;;;14.70;13.20;;;2.20;99.90;;;;;;6161701;23;20455;-78
2024/01/29 08:07:41;;;;;;;14.27;12.67;;;2.40;99.90;;;;;;6167574;23;20441;-78
2024/01/29 08:10:17;;;;;;;14.20;12.80;;;2.60;99.90;;;;;;6166346;23;20411;-76
2024/01/29 08:12:47;;;;;;;14.13;12.67;;;2.90;99.90;;;;;;6165976;23;20420;-79
2024/01/29 08:15:16;;;;;;;12.67;11.37;;;3.10;99.90;;;;;;6166245;23;20399;-77
2024/01/29 08:17:43;;;;;;;16.80;10.83;;;3.40;99.90;;;;;;6165612;23;20518;-78
2024/01/29 08:20:14;;;;;;;11.93;10.73;;;3.70;99.90;;;;;;6164720;23;20733;-77
2024/01/29 08:22:44;;;;;;;13.27;10.47;;;3.90;99.90;;;;;;6164665;23;20415;-79
2024/01/29 08:25:15;;;;;;;11.83;10.73;;;4.20;99.90;;;;;;6167766;23;20412;-78
2024/01/29 08:27:43;;;;;;;11.53;10.53;;;4.30;99.90;;;;;;6164117;23;20428;-78
2024/01/29 08:30:12;;;;;;;14.20;11.10;;;4.40;99.90;;;;;;6165741;23;20412;-78
2024/01/29 08:32:40;;;;;;;13.97;12.57;;;4.80;99.90;;;;;;6166884;23;20483;-79
2024/01/29 08:35:19;;;;;;;13.93;12.30;;;5.10;99.90;;;;;;6169136;23;20412;-79
2024/01/29 08:37:48;;;;;;;17.63;11.63;;;5.40;99.90;;;;;;6167819;23;20501;-78
2024/01/29 08:40:22;;;;;;;17.40;11.53;;;5.50;99.90;;;;;;6167987;23;20423;-78
2024/01/29 08:42:59;;;;;;;14.87;11.33;;;5.70;99.90;;;;;;6162434;23;20435;-77
2024/01/29 08:45:29;;;;;;;14.73;12.00;;;5.80;99.90;;;;;;6164460;23;20408;-79
2024/01/29 08:48:00;;;;;;;18.03;11.80;;;6.10;99.90;;;;;;6161330;23;20400;-78
2024/01/29 08:50:30;;;;;;;11.50;10.40;;;6.00;99.90;;;;;;6162061;23;20436;-77
2024/01/29 08:52:58;;;;;;;12.93;10.00;;;6.30;99.90;;;;;;6169578;23;20431;-77
2024/01/29 08:55:28;;;;;;;12.63;11.27;;;6.40;99.90;;;;;;6169239;23;20412;-78
2024/01/29 08:58:01;;;;;;;11.93;10.73;;;6.50;99.90;;;;;;6169219;23;20511;-77
2024/01/29 09:00:29;;;;;;;13.20;11.50;;;6.60;99.90;;;;;;6167320;23;20546;-80
2024/01/29 09:02:57;;;;;;;16.17;11.20;;;6.70;99.90;;;;;;6170692;23;20481;-77
2024/01/29 09:05:24;;;;;;;15.33;12.37;;;6.80;99.90;;;;;;6170608;23;20408;-79
2024/01/29 09:07:57;;;;;;;12.57;11.27;;;7.10;99.90;;;;;;6169772;23;20559;-77
2024/01/29 09:10:29;;;;;;;18.53;11.10;;;7.30;99.90;;;;;;6168047;23;20482;-79
2024/01/29 09:12:57;;;;;;;11.47;10.27;;;7.60;99.90;;;;;;6170031;23;20408;-77
2024/01/29 09:15:26;;;;;;;12.17;10.93;;;7.80;99.90;;;;;;6168162;23;20414;-78
2024/01/29 09:17:57;;;;;;;11.60;10.20;;;8.00;99.90;;;;;;6168548;23;21063;-80
2024/01/29 09:20:27;;;;;;;12.13;10.93;;;8.30;99.90;;;;;;6167828;23;20400;-82
2024/01/29 09:23:00;;;;;;;11.87;10.30;;;8.40;99.90;;;;;;6167898;23;20471;-79
2024/01/29 09:25:34;;;;;;;12.17;10.70;;;8.70;99.90;;;;;;6167314;23;20424;-78
2024/01/29 09:28:04;;;;;;;12.40;10.50;;;8.60;99.90;;;;;;6168126;23;20409;-79
2024/01/29 09:30:34;;;;;;;12.23;11.00;;;8.90;99.90;;;;;;6166735;23;20412;-80
2024/01/29 09:33:02;;;;;;;12.27;11.10;;;8.90;99.90;;;;;;6167336;23;20430;-78
2024/01/29 09:35:33;;;;;;;13.80;11.10;;;9.30;99.90;;;;;;6168802;23;20412;-78
2024/01/29 09:38:04;;;;;;;12.17;10.90;;;9.30;99.90;;;;;;6168538;23;20452;-78
2024/01/29 09:40:33;;;;;;;11.80;10.70;;;9.60;99.90;;;;;;6169908;23;20427;-79
2024/01/29 09:43:08;;;;;;;11.67;10.53;;;10.10;99.90;;;;;;6168554;23;20428;-78
2024/01/29 09:45:37;;;;;;;11.37;10.23;;;10.00;99.90;;;;;;6170824;23;20418;-79
2024/01/29 09:48:08;;;;;;;12.87;11.63;;;10.50;99.90;;;;;;6166957;23;20423;-78
2024/01/29 09:50:38;;;;;;;15.13;10.97;;;10.20;99.90;;;;;;6166576;23;20373;-77
2024/01/29 09:53:11;;;;;;;10.50;9.60;;;10.60;99.90;;;;;;6168135;23;20436;-78
2024/01/29 09:55:44;;;;;;;12.00;10.80;;;10.90;99.90;;;;;;6163436;23;20478;-79
2024/01/29 09:58:12;;;;;;;12.53;11.23;;;11.00;99.90;;;;;;6168227;23;20450;-79
2024/01/29 10:00:40;;;;;;;11.60;10.50;;;11.20;99.90;;;;;;6165836;23;20408;-79
2024/01/29 10:03:10;;;;;;;12.53;11.33;;;11.20;99.90;;;;;;6164821;23;20436;-79
2024/01/29 10:05:38;;;;;;;12.33;10.70;;;11.20;99.90;;;;;;6158524;23;20439;-79
2024/01/29 10:08:11;;;;;;;12.60;10.03;;;11.40;99.90;;;;;;6158094;23;20404;-78
2024/01/29 10:10:38;;;;;;;14.00;11.80;;;11.60;99.90;;;;;;6159027;23;20415;-79
2024/01/29 10:13:07;;;;;;;12.07;10.87;;;11.50;99.90;;;;;;6158611;23;20487;-79
2024/01/29 10:15:34;;;;;;;11.40;10.30;;;11.90;99.90;;;;;;6158455;23;20588;-80
2024/01/29 10:18:02;;;;;;;13.73;11.00;;;12.10;99.90;;;;;;6158348;23;20514;-78
2024/01/29 10:20:30;;;;;;;10.07;9.30;;;12.40;99.90;;;;;;6157912;23;20467;-77
2024/01/29 10:23:02;;;;;;;10.63;9.53;;;12.60;99.90;;;;;;6158211;23;20459;-78
2024/01/29 10:25:34;;;;;;;9.77;8.87;;;12.70;99.90;;;;;;6158215;23;20429;-78
2024/01/29 10:28:10;;;;;;;11.13;10.00;;;13.10;99.90;;;;;;6159015;23;20503;-79
2024/01/29 10:30:41;;;;;;;10.77;9.70;;;13.00;99.90;;;;;;6159050;23;20459;-78
2024/01/29 10:33:08;;;;;;;10.97;9.80;;;12.90;99.90;;;;;;6159570;23;20416;-79
2024/01/29 10:35:39;;;;;;;11.53;9.70;;;13.10;99.90;;;;;;6159687;23;20753;-80
2024/01/29 10:38:08;;;;;;;10.13;9.10;;;13.30;99.90;;;;;;6159499;23;20432;-77
2024/01/29 10:40:41;;;;;;;9.83;8.73;;;13.40;99.90;;;;;;6158668;23;20415;-81
2024/01/29 10:43:19;;;;;;;11.40;10.30;;;13.40;99.90;;;;;;6159290;23;20431;-77
2024/01/29 10:45:51;;;;;;;34.73;11.10;;;13.60;99.90;;;;;;6160178;23;20462;-79
2024/01/29 10:48:24;;;;;;;13.63;10.37;;;13.50;99.90;;;;;;6172455;23;20431;-78
2024/01/29 10:50:53;;;;;;;12.67;11.47;;;13.90;99.90;;;;;;6176487;23;20404;-80
2024/01/29 10:53:26;;;;;;;13.00;10.43;;;14.00;99.90;;;;;;6176329;23;20438;-80
2024/01/29 10:55:56;;;;;;;12.90;11.60;;;14.10;99.90;;;;;;6172376;23;20430;-78
2024/01/29 10:58:25;;;;;;;12.63;11.27;;;13.70;99.90;;;;;;6165551;23;20435;-83
2024/01/29 11:00:54;;;;;;;11.93;10.60;;;14.00;99.90;;;;;;6161223;23;20419;-78
2024/01/29 11:03:26;;;;;;;12.43;11.20;;;13.80;99.90;;;;;;6158834;23;20829;-79
2024/01/29 11:06:01;;;;;;;11.63;10.63;;;14.20;99.90;;;;;;6159627;23;20483;-77
2024/01/29 11:08:35;;;;;;;11.70;10.60;;;13.40;99.90;;;;;;6158482;23;20409;-78
2024/01/29 11:11:06;;;;;;;13.07;11.60;;;14.10;99.90;;;;;;6159031;23;20388;-78
2024/01/29 11:13:37;;;;;;;13.10;11.93;;;14.50;99.90;;;;;;6159600;23;20438;-77
2024/01/29 11:16:10;;;;;;;13.30;12.10;;;14.70;99.90;;;;;;6159179;23;20932;-77
2024/01/29 11:18:46;;;;;;;12.73;11.53;;;14.70;99.90;;;;;;6160584;23;20930;-78
2024/01/29 11:21:16;;;;;;;22.03;12.20;;;14.30;99.90;;;;;;6159860;23;20444;-78
2024/01/29 11:23:48;;;;;;;13.70;11.87;;;14.70;99.90;;;;;;6158903;23;20972;-77
2024/01/29 11:26:23;;;;;;;12.90;11.70;;;14.80;99.90;;;;;;6159646;23;20427;-78
2024/01/29 11:28:57;;;;;;;21.33;11.07;;;15.20;99.90;;;;;;6159611;23;20700;-79
2024/01/29 11:31:45;;;;;;;10.60;9.70;;;15.30;99.90;;;;;;6158899;23;20805;-79
2024/01/29 11:34:13;;;;;;;11.67;10.43;;;15.20;99.90;;;;;;6159351;23;20439;-77
2024/01/29 11:36:44;;;;;;;15.07;11.37;;;15.30;99.90;;;;;;6159004;23;20439;-79
2024/01/29 11:39:17;;;;;;;12.57;11.47;;;15.10;99.90;;;;;;6159237;23;20439;-78
2024/01/29 11:41:50;;;;;;;12.63;11.33;;;15.70;99.90;;;;;;6158802;23;20412;-79
2024/01/29 11:44:18;;;;;;;12.03;10.93;;;15.60;99.90;;;;;;6158305;23;20419;-81
2024/01/29 11:46:51;;;;;;;12.80;11.70;;;15.70;99.90;;;;;;6158208;23;20474;-81
2024/01/29 11:49:36;;;;;;;11.93;10.83;;;15.20;99.90;;;;;;6157830;23;20400;-78
2024/01/29 11:52:14;;;;;;;10.87;9.87;;;15.50;99.90;;;;;;6157685;23;20438;-76
2024/01/29 11:54:48;;;;;;;11.30;10.30;;;15.80;99.90;;;;;;6159727;23;20431;-77
2024/01/29 11:57:18;;;;;;;10.97;9.87;;;16.10;99.90;;;;;;6160343;23;20485;-78
2024/01/29 11:59:53;;;;;;;11.83;10.10;;;15.90;99.90;;;;;;6160861;23;20411;-79
2024/01/29 12:02:30;;;;;;;10.37;9.40;;;16.00;99.90;;;;;;6160079;23;20412;-77
2024/01/29 12:05:00;;;;;;;10.40;9.47;;;15.90;99.80;;;;;;6160138;23;20412;-77
2024/01/29 12:07:30;;;;;;;9.93;8.97;;;15.60;99.80;;;;;;6159920;23;20446;-79
2024/01/29 12:10:00;;;;;;;9.70;8.73;;;15.40;99.90;;;;;;6158935;23;20478;-78
2024/01/29 12:12:32;;;;;;;10.20;9.27;;;15.70;99.80;;;;;;6158480;23;20408;-79
2024/01/29 12:15:04;;;;;;;10.43;9.10;;;15.50;99.90;;;;;;6159098;23;20746;-80
2024/01/29 12:17:33;;;;;;;9.90;8.90;;;15.60;99.60;;;;;;6161965;23;20422;-80
2024/01/29 12:20:00;;;;;;;9.33;8.50;;;15.60;99.10;;;;;;6160491;23;20398;-78
2024/01/29 12:22:28;;;;;;;12.70;8.73;;;15.10;99.10;;;;;;6160101;23;20890;-79
2024/01/29 12:24:59;;;;;;;8.77;7.87;;;15.70;99.40;;;;;;6159802;23;20758;-79
2024/01/29 12:27:29;;;;;;;11.47;9.13;;;15.60;98.60;;;;;;6160582;23;20404;-79
2024/01/29 12:29:59;;;;;;;9.97;8.97;;;15.70;98.70;;;;;;6159249;23;20420;-79
2024/01/29 12:32:33;;;;;;;10.53;8.50;;;15.70;98.60;;;;;;6163971;23;20770;-80
2024/01/29 12:35:02;;;;;;;21.20;19.10;;;15.80;98.70;;;;;;6165123;23;20459;-81
2024/01/29 12:37:33;;;;;;;12.57;11.23;;;15.80;97.80;;;;;;6163227;23;20428;-81
2024/01/29 12:40:06;;;;;;;8.87;8.13;;;15.80;97.70;;;;;;6164531;23;20423;-81
2024/01/29 12:42:40;;;;;;;8.90;8.00;;;15.70;97.40;;;;;;6161438;23;20893;-79
2024/01/29 12:45:18;;;;;;;9.40;8.53;;;15.60;97.60;;;;;;6160173;23;20458;-78
2024/01/29 12:47:50;;;;;;;25.70;21.17;;;15.70;98.20;;;;;;6161114;23;20464;-79
2024/01/29 12:50:22;;;;;;;12.43;9.10;;;15.60;98.30;;;;;;6159938;23;20417;-81
2024/01/29 12:52:51;;;;;;;11.10;8.70;;;15.70;97.70;;;;;;6159506;23;20432;-79
2024/01/29 12:55:26;;;;;;;8.87;7.97;;;15.70;97.60;;;;;;6159887;23;20408;-78
2024/01/29 12:57:58;;;;;;;8.13;7.33;;;15.70;97.20;;;;;;6158232;23;20773;-79
2024/01/29 13:00:27;;;;;;;8.43;7.20;;;15.70;96.80;;;;;;6159491;23;20408;-79
2024/01/29 13:02:55;;;;;;;10.17;7.90;;;15.70;96.80;;;;;;6160006;23;20416;-80